createdAt,value
2022-12-01T00:07:37.838Z,0
2022-12-01T00:18:07.428Z,0
2022-12-01T00:28:45.915Z,0
2022-12-01T00:34:09.612Z,0
2022-12-01T00:50:03.687Z,0
2022-12-01T00:55:23.001Z,0
2022-12-01T01:00:41.582Z,0
2022-12-01T01:06:00.752Z,0
2022-12-01T01:16:39.346Z,0
2022-12-01T01:27:18.292Z,0
2022-12-01T01:32:38.089Z,0
2022-12-01T01:43:16.878Z,0
2022-12-01T01:48:35.972Z,0
2022-12-01T01:59:14.773Z,0
2022-12-01T02:09:53.385Z,0
2022-12-01T02:25:51.560Z,0
2022-12-01T02:31:14.796Z,0
2022-12-01T02:36:30.139Z,0
2022-12-01T02:52:28.772Z,0
2022-12-01T03:08:27.012Z,0
2022-12-01T03:19:05.367Z,0
2022-12-01T03:35:03.273Z,0
2022-12-01T03:40:23.049Z,0
2022-12-01T03:45:42.431Z,0
2022-12-01T03:51:02.220Z,0
2022-12-01T04:01:41.281Z,0
2022-12-01T04:07:00.411Z,0
2022-12-01T04:12:19.595Z,0
2022-12-01T04:17:39.449Z,0
2022-12-01T04:33:37.748Z,0
2022-12-01T04:44:16.746Z,0
2022-12-01T04:49:35.957Z,0
2022-12-01T05:00:14.621Z,0
2022-12-01T05:16:12.925Z,0
2022-12-01T05:32:10.380Z,0
2022-12-01T05:48:32.184Z,0
2022-12-01T05:59:09.949Z,0
2022-12-01T06:04:29.473Z,0
2022-12-01T06:15:07.413Z,0
2022-12-01T06:20:27.239Z,0
2022-12-01T06:31:06.099Z,0
2022-12-01T06:41:44.283Z,0
2022-12-01T06:47:03.784Z,0
2022-12-01T06:57:42.758Z,10
2022-12-01T07:13:41.463Z,24.1
2022-12-01T07:24:20.705Z,28.7
2022-12-01T07:29:39.822Z,29.35
2022-12-01T07:40:18.008Z,36.95
2022-12-01T07:56:16.083Z,45.19
2022-12-01T08:12:14.718Z,57.89
2022-12-01T08:22:53.374Z,60.75
2022-12-01T08:28:12.209Z,67.84
2022-12-01T08:38:50.777Z,83.19
2022-12-01T09:00:08.778Z,90.19
2022-12-01T09:05:28.297Z,98.1
2022-12-01T09:16:06.711Z,114.35
2022-12-01T09:21:26.177Z,116.75
2022-12-01T09:32:04.938Z,133.79
2022-12-01T09:42:42.759Z,171.45
2022-12-01T09:48:01.903Z,113.69
2022-12-01T09:58:40.754Z,137.09
2022-12-01T10:04:00.309Z,154
2022-12-01T10:14:39.362Z,188.59
2022-12-01T10:25:17.716Z,182.45
2022-12-01T10:30:36.569Z,243.54
2022-12-01T10:41:15.175Z,286.95
2022-12-01T10:57:13.876Z,194.2
2022-12-01T11:13:12.353Z,226.5
2022-12-01T11:23:50.788Z,190.39
2022-12-01T11:29:09.662Z,192.75
2022-12-01T11:39:48.450Z,216.89
2022-12-01T11:50:26.352Z,261.45
2022-12-01T11:55:45.390Z,252
2022-12-01T12:06:40.157Z,432.19
2022-12-01T12:11:43.333Z,389.75
2022-12-01T12:17:03.306Z,220.89
2022-12-01T12:22:22.347Z,225.59
2022-12-01T12:38:21.222Z,192.95
2022-12-01T12:49:19.055Z,209.45
2022-12-01T12:54:19.018Z,177.34
2022-12-01T12:59:37.720Z,169.95
2022-12-01T13:04:57.003Z,165.75
2022-12-01T13:10:15.952Z,158.7
2022-12-01T13:20:53.450Z,170.59
2022-12-01T13:36:51.301Z,121.89
2022-12-01T13:47:29.977Z,139.45
2022-12-01T13:52:49.406Z,110.04
2022-12-01T14:03:28.925Z,84.79
2022-12-01T14:19:25.778Z,64.14
2022-12-01T14:30:04.888Z,60.25
2022-12-01T14:35:24.585Z,54.25
2022-12-01T14:46:02.769Z,47.25
2022-12-01T14:51:22.171Z,35.7
2022-12-01T15:02:00.648Z,26.35
2022-12-01T15:17:57.677Z,22.1
2022-12-01T15:28:36.484Z,16
2022-12-01T15:33:55.461Z,9
2022-12-01T15:39:14.795Z,4
2022-12-01T15:55:13.618Z,0
2022-12-01T16:05:51.806Z,0
2022-12-01T16:11:11.545Z,0
2022-12-01T16:21:49.803Z,0
2022-12-01T16:37:47.489Z,0
2022-12-01T16:48:25.586Z,0
2022-12-01T16:53:49.633Z,0
2022-12-01T16:59:04.730Z,0
2022-12-01T17:04:25.191Z,0
2022-12-01T17:20:22.400Z,0
2022-12-01T17:36:20.499Z,0
2022-12-01T17:46:58.782Z,0
2022-12-01T17:52:18.131Z,0
2022-12-01T18:02:56.894Z,0
2022-12-01T18:18:54.288Z,0
2022-12-01T18:29:32.663Z,0
2022-12-01T18:34:51.951Z,0
2022-12-01T18:45:30.654Z,0
2022-12-01T18:50:52.634Z,0
2022-12-01T18:56:11.637Z,0
2022-12-01T19:01:28.664Z,0
2022-12-01T19:12:06.786Z,0
2022-12-01T19:17:33.875Z,0
2022-12-01T19:22:44.760Z,0
2022-12-01T19:28:04.228Z,0
2022-12-01T19:33:23.537Z,0
2022-12-01T19:44:02.324Z,0
2022-12-01T19:54:41.559Z,0
2022-12-01T20:00:00.503Z,0
2022-12-01T20:10:39.582Z,0
2022-12-01T20:26:37.995Z,0
2022-12-01T20:42:35.412Z,0
2022-12-01T20:53:14.460Z,0
2022-12-01T20:58:37.153Z,0
2022-12-01T21:09:12.475Z,0
2022-12-01T21:14:31.869Z,0
2022-12-01T21:25:09.864Z,0
2022-12-01T21:35:48.189Z,0
2022-12-01T21:51:46.758Z,0
2022-12-01T22:02:25.269Z,0
2022-12-01T22:07:54.671Z,0
2022-12-01T22:18:23.160Z,0
2022-12-01T22:23:42.852Z,0
2022-12-01T22:29:01.449Z,0
2022-12-01T22:45:00.527Z,0
2022-12-01T23:00:58.958Z,0
2022-12-01T23:11:37.966Z,0
2022-12-01T23:16:57.057Z,0
2022-12-01T23:22:16.788Z,0
2022-12-01T23:28:01.266Z,0
2022-12-01T23:33:20.359Z,0
2022-12-01T23:38:39.618Z,0
2022-12-01T23:43:58.843Z,0
2022-12-01T23:49:18.540Z,0
2022-12-01T23:59:57.119Z,0
